Time;durP1;ratioP1;P1;durP2;ratioP2;P2;SDS_P1;SDS_P2;PMS_P1;PMS_P2;Temp;Humidity;BMP_temperature;BMP_pressure;BME280_temperature;BME280_humidity;BME280_pressure;Samples;Min_cycle;Max_cycle;Signal;HPM_P1;HPM_P2
2024/01/21 00:00:48;;;;;;;36.55;18.80;;;-3.60;77.00;;;;;;5045479;28;20049;-62
2024/01/21 00:03:13;;;;;;;37.50;19.15;;;-3.70;77.30;;;;;;5049046;28;20381;-60
2024/01/21 00:05:39;;;;;;;37.70;19.25;;;-3.70;77.40;;;;;;5047028;28;20033;-61
2024/01/21 00:08:05;;;;;;;50.80;19.95;;;-3.80;77.30;;;;;;5048146;28;20033;-60
2024/01/21 00:10:30;;;;;;;41.45;20.35;;;-3.80;77.40;;;;;;5045479;28;20439;-59
2024/01/21 00:12:56;;;;;;;43.03;20.20;;;-3.90;77.40;;;;;;5046036;28;20026;-61
2024/01/21 00:15:22;;;;;;;39.75;20.45;;;-3.90;77.40;;;;;;5047841;28;20523;-62
2024/01/21 00:17:48;;;;;;;36.60;18.92;;;-4.00;77.60;;;;;;5042227;28;20021;-61
2024/01/21 00:20:14;;;;;;;41.17;19.95;;;-4.00;77.80;;;;;;5045935;28;20099;-62
2024/01/21 00:22:40;;;;;;;41.88;21.00;;;-4.00;78.10;;;;;;5045443;28;20036;-61
2024/01/21 00:25:09;;;;;;;41.35;20.08;;;-4.10;78.30;;;;;;5044768;28;20053;-62
2024/01/21 00:27:35;;;;;;;43.33;20.50;;;-4.10;78.30;;;;;;5044590;28;20116;-62
2024/01/21 00:30:01;;;;;;;42.90;20.55;;;-4.10;78.30;;;;;;5043778;28;20029;-61
2024/01/21 00:32:26;;;;;;;43.05;20.23;;;-4.10;78.30;;;;;;5047242;28;20091;-61
2024/01/21 00:34:52;;;;;;;45.58;20.55;;;-4.10;78.10;;;;;;5045658;28;20040;-62
2024/01/21 00:37:18;;;;;;;57.15;24.85;;;-4.10;78.00;;;;;;5046838;28;20032;-61
2024/01/21 00:39:43;;;;;;;55.38;23.50;;;-4.10;78.10;;;;;;5043825;28;20116;-61
2024/01/21 00:42:09;;;;;;;43.17;20.73;;;-4.10;78.30;;;;;;5044296;28;20492;-61
2024/01/21 00:44:35;;;;;;;41.47;19.92;;;-4.10;78.40;;;;;;5045161;28;20036;-62
2024/01/21 00:47:01;;;;;;;45.15;20.63;;;-4.10;78.60;;;;;;5047519;28;20191;-59
2024/01/21 00:49:26;;;;;;;41.33;20.45;;;-4.10;78.60;;;;;;5041596;28;20548;-61
2024/01/21 00:51:52;;;;;;;39.65;18.77;;;-4.10;78.40;;;;;;5040780;28;20083;-62
2024/01/21 00:54:18;;;;;;;35.45;17.83;;;-4.10;78.00;;;;;;5045374;28;20037;-62
2024/01/21 00:56:43;;;;;;;38.95;17.98;;;-4.10;78.00;;;;;;5045257;28;20025;-61
2024/01/21 00:59:09;;;;;;;34.15;18.05;;;-4.10;78.10;;;;;;5045143;28;20040;-61
2024/01/21 01:01:37;;;;;;;37.17;18.63;;;-4.10;78.10;;;;;;5041156;28;20029;-60
2024/01/21 01:04:04;;;;;;;40.63;19.38;;;-4.10;78.00;;;;;;5046897;28;20524;-62
2024/01/21 01:06:30;;;;;;;42.83;20.13;;;-4.10;78.00;;;;;;5044612;28;20064;-61
2024/01/21 01:08:55;;;;;;;47.45;21.27;;;-4.10;77.80;;;;;;5046091;28;20084;-62
2024/01/21 01:11:21;;;;;;;51.13;21.77;;;-4.20;77.50;;;;;;5047311;28;20033;-62
2024/01/21 01:13:47;;;;;;;46.85;21.10;;;-4.20;77.70;;;;;;5043287;28;20043;-60
2024/01/21 01:16:13;;;;;;;46.35;21.02;;;-4.20;77.70;;;;;;5043891;28;20265;-62
2024/01/21 01:18:39;;;;;;;42.88;19.95;;;-4.30;77.60;;;;;;5046089;28;20562;-63
2024/01/21 01:21:04;;;;;;;47.95;22.25;;;-4.30;77.50;;;;;;5043808;28;20119;-61
2024/01/21 01:23:30;;;;;;;43.53;21.23;;;-4.40;77.60;;;;;;5045224;28;20036;-61
2024/01/21 01:25:55;;;;;;;44.03;21.60;;;-4.40;77.80;;;;;;5041446;28;20033;-61
2024/01/21 01:28:21;;;;;;;48.17;21.40;;;-4.40;77.80;;;;;;5048709;28;20053;-60
2024/01/21 01:30:47;;;;;;;48.80;23.15;;;-4.50;77.80;;;;;;5045883;28;20030;-61
2024/01/21 01:33:12;;;;;;;48.38;22.10;;;-4.50;77.70;;;;;;5042515;28;20029;-59
2024/01/21 01:35:38;;;;;;;54.03;23.35;;;-4.60;77.80;;;;;;5046013;28;20065;-60
2024/01/21 01:38:05;;;;;;;53.08;23.80;;;-4.60;77.90;;;;;;5043768;28;20041;-60
2024/01/21 01:40:31;;;;;;;55.70;22.55;;;-4.70;78.00;;;;;;5046507;28;20078;-59
2024/01/21 01:43:02;;;;;;;50.28;23.17;;;-4.70;78.40;;;;;;5046896;28;20037;-61
2024/01/21 01:45:28;;;;;;;51.83;23.67;;;-4.80;78.70;;;;;;5044877;28;20033;-57
2024/01/21 01:47:54;;;;;;;52.33;23.42;;;-4.80;78.90;;;;;;5043111;28;20440;-61
2024/01/21 01:50:20;;;;;;;47.72;23.75;;;-4.90;79.00;;;;;;5040227;28;20132;-61
2024/01/21 01:52:46;;;;;;;55.78;23.00;;;-4.90;79.20;;;;;;5043724;28;20043;-61
2024/01/21 01:55:12;;;;;;;47.65;21.90;;;-4.90;79.30;;;;;;5047551;28;20040;-61
2024/01/21 01:57:37;;;;;;;45.88;22.17;;;-4.90;79.50;;;;;;5038539;28;20055;-62
2024/01/21 02:00:06;;;;;;;46.22;21.77;;;-4.90;79.70;;;;;;5046541;28;20501;-60
2024/01/21 02:02:33;;;;;;;47.13;23.40;;;-4.80;79.70;;;;;;5042385;28;20113;-62
2024/01/21 02:05:03;;;;;;;46.90;22.35;;;-4.80;79.40;;;;;;5047815;28;20091;-60
2024/01/21 02:07:29;;;;;;;48.33;21.77;;;-4.90;79.20;;;;;;5046556;28;20410;-61
2024/01/21 02:09:54;;;;;;;46.38;21.92;;;-4.90;79.20;;;;;;5040827;28;20408;-62
2024/01/21 02:12:20;;;;;;;43.47;20.75;;;-4.90;79.20;;;;;;5046274;28;20033;-60
2024/01/21 02:14:45;;;;;;;40.50;19.90;;;-4.80;79.30;;;;;;5044571;28;20034;-60
2024/01/21 02:17:11;;;;;;;44.00;20.88;;;-4.80;79.40;;;;;;5042443;28;20033;-61
2024/01/21 02:19:38;;;;;;;49.00;21.95;;;-4.80;79.40;;;;;;5045437;28;20086;-60
2024/01/21 02:22:04;;;;;;;46.33;22.13;;;-4.80;79.40;;;;;;5046142;28;20035;-62
2024/01/21 02:24:31;;;;;;;42.22;20.70;;;-4.80;79.20;;;;;;5046233;28;20037;-61
2024/01/21 02:26:56;;;;;;;42.17;20.88;;;-4.80;78.90;;;;;;5045146;28;20063;-60
2024/01/21 02:29:22;;;;;;;43.08;20.77;;;-4.80;78.80;;;;;;5042295;28;20503;-62
2024/01/21 02:31:48;;;;;;;45.42;19.38;;;-4.80;78.80;;;;;;5048339;28;20037;-60
2024/01/21 02:34:13;;;;;;;43.72;20.52;;;-4.80;78.60;;;;;;5048847;28;20036;-62
2024/01/21 02:36:39;;;;;;;40.40;19.98;;;-4.90;78.50;;;;;;5049737;28;20072;-61
2024/01/21 02:39:04;;;;;;;38.55;19.15;;;-4.90;78.50;;;;;;5051086;28;20029;-61
2024/01/21 02:41:30;;;;;;;38.30;18.08;;;-4.90;79.30;;;;;;5046785;28;20028;-60
2024/01/21 02:43:56;;;;;;;42.42;20.48;;;-4.90;78.50;;;;;;5045572;28;20481;-60
2024/01/21 02:46:22;;;;;;;37.95;19.25;;;-5.00;78.80;;;;;;5048015;28;20400;-60
2024/01/21 02:48:47;;;;;;;40.20;18.98;;;-4.90;78.90;;;;;;5045954;28;20036;-61
2024/01/21 02:51:15;;;;;;;37.45;19.38;;;-4.90;79.20;;;;;;5045875;28;20036;-60
2024/01/21 02:53:41;;;;;;;39.58;19.73;;;-4.90;78.60;;;;;;5047326;28;20033;-59
2024/01/21 02:56:07;;;;;;;40.95;19.85;;;-4.90;78.50;;;;;;5048445;28;20408;-62
2024/01/21 02:58:33;;;;;;;40.42;20.10;;;-5.00;78.30;;;;;;5045373;28;20195;-62
2024/01/21 03:00:58;;;;;;;42.67;20.52;;;-5.00;78.50;;;;;;5046773;28;20029;-61
2024/01/21 03:03:24;;;;;;;46.47;21.77;;;-5.00;78.50;;;;;;5048394;28;20040;-60
2024/01/21 03:05:49;;;;;;;43.92;20.73;;;-5.00;78.30;;;;;;5050235;28;20033;-61
2024/01/21 03:08:15;;;;;;;44.13;20.33;;;-5.00;78.30;;;;;;5051164;28;20047;-62
2024/01/21 03:10:41;;;;;;;43.38;20.63;;;-5.00;78.50;;;;;;5047888;28;20037;-61
2024/01/21 03:13:09;;;;;;;41.80;20.98;;;-5.00;78.50;;;;;;5045497;28;20041;-61
2024/01/21 03:15:35;;;;;;;47.35;21.00;;;-5.00;78.30;;;;;;5046363;28;20424;-61
2024/01/21 03:18:00;;;;;;;45.60;20.75;;;-5.10;78.00;;;;;;5048699;28;20040;-61
2024/01/21 03:20:26;;;;;;;42.60;19.40;;;-5.10;77.70;;;;;;5047644;28;20060;-59
2024/01/21 03:22:51;;;;;;;41.58;18.45;;;-5.10;77.80;;;;;;5046019;28;20082;-62
2024/01/21 03:25:17;;;;;;;37.47;19.05;;;-5.10;78.00;;;;;;5047265;28;20033;-60
2024/01/21 03:27:43;;;;;;;39.70;19.60;;;-5.10;78.30;;;;;;5044141;28;20064;-58
2024/01/21 03:30:09;;;;;;;44.53;18.88;;;-5.10;78.60;;;;;;5048810;28;20037;-61
2024/01/21 03:32:34;;;;;;;39.20;19.30;;;-5.10;78.50;;;;;;5046189;28;20049;-62
2024/01/21 03:35:00;;;;;;;37.78;19.27;;;-5.20;78.30;;;;;;5047042;28;20533;-60
2024/01/21 03:37:25;;;;;;;35.88;18.40;;;-5.20;78.30;;;;;;5045073;28;20021;-62
2024/01/21 03:39:51;;;;;;;37.25;18.95;;;-5.20;78.30;;;;;;5047338;28;20102;-60
2024/01/21 03:42:17;;;;;;;36.35;17.73;;;-5.20;78.40;;;;;;5047524;28;20033;-59
2024/01/21 03:44:42;;;;;;;33.50;17.63;;;-5.20;78.50;;;;;;5045803;28;20509;-61
2024/01/21 03:47:08;;;;;;;34.55;17.80;;;-5.30;78.60;;;;;;5049837;28;20037;-60
2024/01/21 03:49:34;;;;;;;33.75;18.45;;;-5.20;78.90;;;;;;5043038;28;20033;-60
2024/01/21 03:51:59;;;;;;;31.80;16.88;;;-5.20;78.90;;;;;;5044586;28;20021;-61
2024/01/21 03:54:25;;;;;;;33.40;17.23;;;-5.20;78.80;;;;;;5045828;28;20416;-62
2024/01/21 03:56:50;;;;;;;32.08;16.55;;;-5.20;78.60;;;;;;5047384;28;20029;-61
2024/01/21 03:59:16;;;;;;;35.95;17.73;;;-5.20;78.60;;;;;;5048611;28;20542;-59
2024/01/21 04:01:44;;;;;;;38.08;18.45;;;-5.20;78.60;;;;;;5046746;28;20599;-61
2024/01/21 04:04:12;;;;;;;37.78;18.92;;;-5.20;78.30;;;;;;5047043;28;20057;-61
2024/01/21 04:06:42;;;;;;;33.65;17.23;;;-5.20;78.10;;;;;;5044821;28;20526;-62
2024/01/21 04:09:09;;;;;;;34.42;17.95;;;-5.20;77.90;;;;;;5039843;28;20499;-62
2024/01/21 04:11:34;;;;;;;34.88;17.38;;;-5.20;78.00;;;;;;5045418;28;20118;-61
2024/01/21 04:14:00;;;;;;;30.10;16.70;;;-5.30;78.00;;;;;;5042917;28;20064;-60
2024/01/21 04:16:25;;;;;;;35.40;17.70;;;-5.30;78.30;;;;;;5046286;28;20033;-60
2024/01/21 04:18:51;;;;;;;33.00;17.02;;;-5.30;78.70;;;;;;5049430;28;20410;-60
2024/01/21 04:21:16;;;;;;;35.78;17.65;;;-5.30;78.90;;;;;;5047749;28;20076;-61
2024/01/21 04:23:42;;;;;;;34.85;17.88;;;-5.20;78.90;;;;;;5049659;28;20037;-60
2024/01/21 04:26:08;;;;;;;35.10;18.45;;;-5.20;78.70;;;;;;5046875;28;20025;-61
2024/01/21 04:28:33;;;;;;;34.63;17.15;;;-5.20;78.60;;;;;;5045189;28;20029;-61
2024/01/21 04:30:59;;;;;;;32.22;16.98;;;-5.20;78.60;;;;;;5046321;28;20082;-61
2024/01/21 04:33:24;;;;;;;32.15;16.77;;;-5.20;78.70;;;;;;5043277;28;20048;-60
2024/01/21 04:35:51;;;;;;;31.95;16.52;;;-5.20;78.80;;;;;;5046396;28;20047;-61
2024/01/21 04:38:17;;;;;;;34.50;17.55;;;-5.20;78.90;;;;;;5048851;28;20043;-61
2024/01/21 04:40:42;;;;;;;34.50;17.13;;;-5.20;79.00;;;;;;5046658;28;20132;-62
2024/01/21 04:43:08;;;;;;;36.65;18.25;;;-5.20;78.90;;;;;;5046134;28;20091;-61
2024/01/21 04:45:33;;;;;;;32.08;16.65;;;-5.20;78.80;;;;;;5042260;28;20070;-61
2024/01/21 04:47:59;;;;;;;32.90;16.60;;;-5.10;78.80;;;;;;5044860;28;20126;-60
2024/01/21 04:50:24;;;;;;;34.08;17.55;;;-5.10;78.70;;;;;;5043604;28;20040;-61
2024/01/21 04:52:50;;;;;;;31.73;17.13;;;-5.00;78.60;;;;;;5044105;28;20036;-58
2024/01/21 04:55:16;;;;;;;31.77;16.85;;;-5.10;78.30;;;;;;5047367;28;20045;-60
2024/01/21 04:57:41;;;;;;;35.50;17.15;;;-5.10;78.20;;;;;;5043705;28;20515;-62
2024/01/21 05:00:07;;;;;;;32.65;16.75;;;-5.10;78.90;;;;;;5047545;28;20025;-60
2024/01/21 05:02:33;;;;;;;30.13;16.67;;;-5.20;78.00;;;;;;5042856;28;20025;-60
2024/01/21 05:04:58;;;;;;;31.05;16.75;;;-5.20;78.20;;;;;;5046044;28;20504;-60
2024/01/21 05:07:24;;;;;;;33.90;16.92;;;-5.20;78.50;;;;;;5048425;28;20465;-61
2024/01/21 05:09:49;;;;;;;30.67;16.38;;;-5.20;78.80;;;;;;5043265;28;20497;-61
2024/01/21 05:12:15;;;;;;;29.20;16.00;;;-5.20;79.20;;;;;;5045327;28;20056;-62
2024/01/21 05:14:41;;;;;;;28.75;15.90;;;-5.10;79.70;;;;;;5043835;28;20075;-61
2024/01/21 05:17:06;;;;;;;31.73;16.95;;;-5.10;80.00;;;;;;5043398;28;20056;-61
2024/01/21 05:19:32;;;;;;;29.27;15.98;;;-5.10;80.10;;;;;;5045347;28;20053;-60
2024/01/21 05:21:57;;;;;;;29.17;16.55;;;-5.00;80.20;;;;;;5043329;28;20033;-62
2024/01/21 05:24:23;;;;;;;32.05;17.20;;;-5.00;80.30;;;;;;5044583;28;20033;-61
2024/01/21 05:26:48;;;;;;;28.17;15.38;;;-4.90;80.40;;;;;;5048616;28;20036;-59
2024/01/21 05:29:14;;;;;;;31.05;17.02;;;-4.90;80.40;;;;;;5047938;28;20040;-59
2024/01/21 05:31:40;;;;;;;29.40;16.73;;;-4.90;80.30;;;;;;5045539;28;20041;-59
2024/01/21 05:34:05;;;;;;;34.22;16.30;;;-4.80;80.30;;;;;;5043735;28;20496;-61
2024/01/21 05:36:31;;;;;;;31.50;16.55;;;-4.80;80.00;;;;;;5045721;28;20176;-61
2024/01/21 05:38:56;;;;;;;29.25;16.45;;;-4.80;79.90;;;;;;5045182;28;20028;-59
2024/01/21 05:41:22;;;;;;;29.67;16.48;;;-4.80;79.90;;;;;;5044411;28;20100;-60
2024/01/21 05:43:48;;;;;;;33.10;16.75;;;-4.80;79.80;;;;;;5045623;28;20030;-61
2024/01/21 05:46:13;;;;;;;29.13;16.33;;;-4.70;79.80;;;;;;5046704;28;20025;-59
2024/01/21 05:48:39;;;;;;;33.65;17.75;;;-4.70;80.00;;;;;;5043690;28;20029;-58
2024/01/21 05:51:05;;;;;;;32.25;16.88;;;-4.70;80.20;;;;;;5041535;28;20033;-61
2024/01/21 05:53:31;;;;;;;29.88;17.08;;;-4.70;80.40;;;;;;5042855;28;20037;-60
2024/01/21 05:55:56;;;;;;;31.92;16.42;;;-4.70;80.50;;;;;;5046565;28;20094;-61
2024/01/21 05:58:22;;;;;;;29.75;16.67;;;-4.70;80.60;;;;;;5046865;28;20040;-62
2024/01/21 06:00:47;;;;;;;30.75;16.77;;;-4.70;80.60;;;;;;5043588;28;20560;-62
2024/01/21 06:03:13;;;;;;;30.42;17.10;;;-4.60;80.60;;;;;;5046661;28;20055;-62
2024/01/21 06:05:38;;;;;;;30.98;17.15;;;-4.60;80.40;;;;;;5040084;28;20419;-61
2024/01/21 06:08:04;;;;;;;30.05;16.98;;;-4.60;80.30;;;;;;5050297;28;20037;-62
2024/01/21 06:10:30;;;;;;;31.92;17.02;;;-4.70;80.20;;;;;;5048539;28;20037;-61
2024/01/21 06:12:55;;;;;;;32.20;17.98;;;-4.70;80.20;;;;;;5046673;28;20033;-60
2024/01/21 06:15:21;;;;;;;37.17;19.10;;;-4.70;80.20;;;;;;5050270;28;20041;-61
2024/01/21 06:17:50;;;;;;;38.33;19.38;;;-4.70;80.20;;;;;;5046120;28;20064;-60
2024/01/21 06:20:16;;;;;;;34.75;18.65;;;-4.60;80.20;;;;;;5048873;28;20037;-60
2024/01/21 06:22:41;;;;;;;37.80;18.90;;;-4.70;79.90;;;;;;5049931;28;20488;-60
2024/01/21 06:25:07;;;;;;;33.67;18.30;;;-4.70;79.90;;;;;;5048370;28;20052;-60
2024/01/21 06:27:33;;;;;;;30.23;16.77;;;-4.70;80.00;;;;;;5047401;28;20569;-61
2024/01/21 06:30:21;;;;;;;36.40;19.00;;;-4.70;79.90;;;;;;5044722;28;20030;-61
2024/01/21 06:32:46;;;;;;;38.15;18.90;;;-4.70;79.80;;;;;;5044888;28;20040;-60
2024/01/21 06:35:12;;;;;;;35.40;18.58;;;-4.70;79.50;;;;;;5052849;28;20348;-61
2024/01/21 06:37:38;;;;;;;32.65;18.25;;;-4.70;79.30;;;;;;5047053;28;20061;-61
2024/01/21 06:40:04;;;;;;;33.58;19.05;;;-4.80;79.10;;;;;;5050283;28;20442;-61
2024/01/21 06:42:30;;;;;;;34.60;18.30;;;-4.80;79.00;;;;;;5045591;28;20082;-59
2024/01/21 06:44:55;;;;;;;31.30;17.70;;;-4.90;79.10;;;;;;5048002;28;20033;-61
2024/01/21 06:47:21;;;;;;;33.20;18.05;;;-4.90;79.40;;;;;;5051844;28;20045;-60
2024/01/21 06:49:46;;;;;;;33.65;18.13;;;-4.90;79.60;;;;;;5043196;28;20034;-60
2024/01/21 06:52:12;;;;;;;35.22;17.30;;;-5.00;79.70;;;;;;5045552;28;20500;-62
2024/01/21 06:54:38;;;;;;;34.13;17.35;;;-5.00;79.80;;;;;;5049287;28;20055;-60
2024/01/21 06:57:04;;;;;;;30.73;17.48;;;-5.00;80.00;;;;;;5048557;28;20029;-62
2024/01/21 06:59:29;;;;;;;31.52;17.98;;;-5.00;80.20;;;;;;5047388;28;20038;-62
2024/01/21 07:01:55;;;;;;;31.33;17.35;;;-5.00;80.40;;;;;;5045172;28;20034;-61
2024/01/21 07:04:20;;;;;;;36.50;17.52;;;-5.00;80.50;;;;;;5047375;28;20033;-60
2024/01/21 07:06:46;;;;;;;29.48;16.80;;;-5.00;81.40;;;;;;5048115;28;20091;-60
2024/01/21 07:09:12;;;;;;;37.67;20.27;;;-5.00;80.70;;;;;;5048130;28;20052;-61
2024/01/21 07:11:42;;;;;;;39.55;20.05;;;-5.00;80.80;;;;;;5048852;28;20033;-61
2024/01/21 07:14:07;;;;;;;36.03;19.55;;;-4.90;80.90;;;;;;5044682;28;20029;-57
2024/01/21 07:16:33;;;;;;;33.50;19.58;;;-4.90;80.80;;;;;;5046918;28;20036;-60
2024/01/21 07:18:58;;;;;;;33.83;19.15;;;-4.90;80.80;;;;;;5034097;28;20375;-59
2024/01/21 07:21:24;;;;;;;33.78;19.65;;;-4.80;81.00;;;;;;5040483;28;20056;-59
2024/01/21 07:23:50;;;;;;;39.35;20.88;;;-4.80;81.00;;;;;;5029354;28;20118;-62
2024/01/21 07:26:15;;;;;;;34.10;19.67;;;-4.80;81.00;;;;;;5037339;28;20518;-61
2024/01/21 07:28:41;;;;;;;39.78;21.30;;;-4.70;81.10;;;;;;5042313;28;20078;-61
2024/01/21 07:31:07;;;;;;;38.10;21.05;;;-4.70;81.10;;;;;;5036061;28;20051;-61
2024/01/21 07:33:33;;;;;;;38.08;21.75;;;-4.60;81.10;;;;;;5031497;28;20037;-59
2024/01/21 07:36:03;;;;;;;47.25;25.17;;;-4.60;81.20;;;;;;5039852;28;20033;-60
2024/01/21 07:38:29;;;;;;;41.80;24.73;;;-4.50;81.40;;;;;;5043203;28;20037;-61
2024/01/21 07:40:54;;;;;;;41.42;22.98;;;-4.50;81.40;;;;;;5046083;28;20396;-60
2024/01/21 07:43:20;;;;;;;34.53;19.13;;;-4.40;81.50;;;;;;5040391;28;20535;-59
2024/01/21 07:45:46;;;;;;;34.10;18.77;;;-4.40;81.50;;;;;;5038965;28;20568;-61
2024/01/21 07:48:11;;;;;;;29.80;18.20;;;-4.30;81.80;;;;;;5035777;28;20455;-61
2024/01/21 07:50:37;;;;;;;29.85;17.67;;;-4.30;82.00;;;;;;5038091;28;20038;-60
2024/01/21 07:53:03;;;;;;;30.50;17.75;;;-4.20;82.30;;;;;;5042506;28;20033;-59
2024/01/21 07:55:28;;;;;;;30.55;17.17;;;-4.20;82.40;;;;;;5041259;28;20075;-62
2024/01/21 07:57:54;;;;;;;31.88;17.77;;;-4.10;82.60;;;;;;5043538;28;20064;-60
2024/01/21 08:00:20;;;;;;;33.20;18.08;;;-4.10;82.80;;;;;;5039748;28;20037;-61
2024/01/21 08:02:45;;;;;;;31.83;18.02;;;-4.00;83.00;;;;;;5043128;28;20571;-61
2024/01/21 08:05:11;;;;;;;28.38;17.30;;;-4.00;83.00;;;;;;5040739;28;20036;-62
2024/01/21 08:07:36;;;;;;;30.90;17.30;;;-3.90;83.10;;;;;;5041115;28;20447;-61
2024/01/21 08:10:04;;;;;;;29.63;17.17;;;-3.80;83.20;;;;;;5043932;28;20051;-61
2024/01/21 08:12:30;;;;;;;29.02;17.02;;;-3.80;83.30;;;;;;5045822;28;20432;-59
2024/01/21 08:14:56;;;;;;;35.53;18.70;;;-3.70;83.50;;;;;;5044238;28;20052;-60
2024/01/21 08:17:21;;;;;;;35.08;18.77;;;-3.60;83.60;;;;;;5041405;28;20079;-61
2024/01/21 08:19:47;;;;;;;39.78;19.02;;;-3.60;83.80;;;;;;5042651;28;20377;-58
2024/01/21 08:22:13;;;;;;;34.72;18.13;;;-3.50;83.80;;;;;;5041797;28;20033;-58
2024/01/21 08:24:38;;;;;;;31.58;17.92;;;-3.40;83.80;;;;;;5043582;28;20099;-59
2024/01/21 08:27:05;;;;;;;34.38;20.00;;;-3.40;83.90;;;;;;5045652;28;20087;-59
2024/01/21 08:29:31;;;;;;;36.25;18.67;;;-3.20;84.00;;;;;;5040479;28;20060;-57
2024/01/21 08:31:59;;;;;;;34.38;18.38;;;-3.20;83.90;;;;;;5043834;28;20415;-60
2024/01/21 08:34:24;;;;;;;33.88;17.42;;;-3.20;84.00;;;;;;5042674;28;20033;-56
2024/01/21 08:36:50;;;;;;;29.85;16.90;;;-3.10;84.20;;;;;;5035104;28;20029;-60
2024/01/21 08:39:16;;;;;;;31.70;18.10;;;-3.00;84.20;;;;;;5042664;28;20028;-62
2024/01/21 08:41:41;;;;;;;28.95;16.42;;;-2.90;84.40;;;;;;5042664;28;20095;-60
2024/01/21 08:44:07;;;;;;;31.40;17.98;;;-2.90;84.40;;;;;;5032657;28;20312;-59
2024/01/21 08:46:33;;;;;;;32.03;18.15;;;-2.80;84.50;;;;;;5040230;28;20090;-59
2024/01/21 08:48:58;;;;;;;31.85;18.10;;;-2.70;84.60;;;;;;5036809;28;20029;-61
2024/01/21 08:51:24;;;;;;;30.73;18.00;;;-2.60;84.70;;;;;;5039323;28;20029;-59
2024/01/21 08:53:56;;;;;;;33.78;18.60;;;-2.50;84.70;;;;;;5033750;28;20029;-58
2024/01/21 08:56:24;;;;;;;33.58;18.67;;;-2.40;84.70;;;;;;5039040;28;20033;-58
2024/01/21 08:58:50;;;;;;;32.35;18.65;;;-2.40;84.70;;;;;;5040864;28;20036;-61
2024/01/21 09:01:16;;;;;;;28.75;17.85;;;-2.30;84.70;;;;;;5037309;28;20029;-57
2024/01/21 09:03:42;;;;;;;32.38;17.92;;;-2.20;84.70;;;;;;5041066;28;20036;-60
2024/01/21 09:06:07;;;;;;;32.47;18.52;;;-2.20;84.70;;;;;;5034640;28;20106;-60
2024/01/21 09:08:33;;;;;;;35.53;21.40;;;-2.10;84.60;;;;;;5044480;28;20037;-60
2024/01/21 09:10:58;;;;;;;34.45;19.15;;;-2.00;84.80;;;;;;5042920;28;20041;-60
2024/01/21 09:13:24;;;;;;;30.20;18.45;;;-2.00;85.70;;;;;;5040865;28;20125;-57
2024/01/21 09:15:49;;;;;;;29.90;17.30;;;-1.90;84.90;;;;;;5045808;28;20516;-60
2024/01/21 09:18:15;;;;;;;33.85;18.20;;;-1.80;85.00;;;;;;5042660;28;20134;-57
2024/01/21 09:20:41;;;;;;;35.88;20.83;;;-1.80;85.00;;;;;;5043832;28;20040;-60
2024/01/21 09:23:06;;;;;;;48.78;28.58;;;-1.70;84.90;;;;;;5046381;28;20040;-59
2024/01/21 09:25:32;;;;;;;32.33;20.10;;;-1.60;85.10;;;;;;5038406;28;20041;-60
2024/01/21 09:27:58;;;;;;;33.65;18.98;;;-1.50;85.00;;;;;;5048763;28;20531;-59
2024/01/21 09:30:23;;;;;;;32.10;19.30;;;-1.40;85.10;;;;;;5038081;28;20101;-61
2024/01/21 09:32:49;;;;;;;33.03;18.52;;;-1.40;85.10;;;;;;5042496;28;20076;-60
2024/01/21 09:35:15;;;;;;;32.10;18.45;;;-1.30;85.30;;;;;;5040532;28;20554;-59
2024/01/21 09:37:40;;;;;;;31.98;17.98;;;-1.30;85.20;;;;;;5040317;28;20124;-57
2024/01/21 09:40:07;;;;;;;31.15;18.02;;;-1.10;85.20;;;;;;5035945;28;20033;-56
2024/01/21 09:42:32;;;;;;;27.55;15.93;;;-1.10;85.20;;;;;;5039363;28;20037;-58
2024/01/21 09:44:58;;;;;;;26.13;15.82;;;-1.00;85.10;;;;;;5046575;28;20036;-59
2024/01/21 09:47:26;;;;;;;27.10;16.15;;;-0.90;86.00;;;;;;5043604;28;20590;-60
2024/01/21 09:49:51;;;;;;;31.48;17.27;;;-0.80;85.10;;;;;;5031149;28;20091;-59
2024/01/21 09:52:18;;;;;;;27.40;17.45;;;-0.70;85.10;;;;;;5040778;28;20041;-60
2024/01/21 09:54:45;;;;;;;27.88;16.58;;;-0.60;85.10;;;;;;5040856;28;20041;-57
2024/01/21 09:57:12;;;;;;;31.83;18.85;;;-0.50;85.10;;;;;;5027371;28;20580;-59
2024/01/21 09:59:39;;;;;;;30.20;17.50;;;-0.50;85.00;;;;;;5034539;28;20026;-60
2024/01/21 10:02:11;;;;;;;25.13;15.88;;;-0.40;85.00;;;;;;5032588;28;20512;-59
2024/01/21 10:04:37;;;;;;;24.20;14.90;;;-0.30;85.10;;;;;;5039485;28;20053;-58
2024/01/21 10:07:03;;;;;;;25.05;14.85;;;-0.20;84.90;;;;;;5041881;28;20536;-56
2024/01/21 10:09:29;;;;;;;24.40;14.35;;;-0.10;84.90;;;;;;5035238;28;20084;-58
2024/01/21 10:11:56;;;;;;;24.52;15.00;;;0.00;84.80;;;;;;5034683;28;20123;-59
2024/01/21 10:14:24;;;;;;;23.00;14.45;;;0.10;84.70;;;;;;5038892;28;20041;-61
2024/01/21 10:16:50;;;;;;;24.55;14.75;;;0.20;84.70;;;;;;5047570;28;20416;-58
2024/01/21 10:19:33;;;;;;;25.50;15.05;;;0.30;84.40;;;;;;5048846;28;20029;-59
2024/01/21 10:22:15;;;;;;;23.40;14.55;;;0.30;84.20;;;;;;5046455;28;20036;-59
2024/01/21 10:24:41;;;;;;;24.95;14.30;;;0.40;84.30;;;;;;5043899;28;20029;-59
2024/01/21 10:27:08;;;;;;;26.27;14.90;;;0.40;84.00;;;;;;5049132;28;20033;-57
2024/01/21 10:29:44;;;;;;;23.33;14.60;;;0.50;84.00;;;;;;5045506;28;20033;-61
2024/01/21 10:32:12;;;;;;;23.00;14.10;;;0.60;83.90;;;;;;5043593;28;20112;-59
2024/01/21 10:34:45;;;;;;;20.30;13.13;;;0.70;83.90;;;;;;5040660;28;20355;-60
2024/01/21 10:37:15;;;;;;;24.20;13.93;;;0.70;83.70;;;;;;5042702;28;20098;-59
2024/01/21 10:39:44;;;;;;;23.20;13.70;;;0.70;84.20;;;;;;5047719;28;20025;-60
2024/01/21 10:42:11;;;;;;;23.88;13.82;;;0.80;83.30;;;;;;5046803;28;20408;-60
2024/01/21 10:44:38;;;;;;;23.77;15.30;;;0.80;83.20;;;;;;5045625;28;20037;-58
2024/01/21 10:47:05;;;;;;;26.67;14.82;;;0.90;83.20;;;;;;5049102;28;20037;-57
2024/01/21 10:49:32;;;;;;;26.50;15.05;;;0.90;83.20;;;;;;5044923;28;20029;-58
2024/01/21 10:51:58;;;;;;;27.35;15.93;;;0.90;83.20;;;;;;5045965;28;20099;-56
2024/01/21 10:54:28;;;;;;;27.88;16.02;;;0.90;83.00;;;;;;5049248;28;20492;-57
2024/01/21 10:56:53;;;;;;;28.98;15.68;;;1.00;82.90;;;;;;5045995;28;20104;-58
2024/01/21 10:59:20;;;;;;;26.38;15.63;;;1.00;82.80;;;;;;5045829;28;20565;-56
2024/01/21 11:01:46;;;;;;;25.75;16.00;;;1.00;82.80;;;;;;5049779;28;20059;-55
2024/01/21 11:04:13;;;;;;;27.10;15.63;;;1.00;82.80;;;;;;5053127;28;20124;-57
2024/01/21 11:06:48;;;;;;;25.40;15.18;;;1.00;82.90;;;;;;5046628;28;20033;-57
2024/01/21 11:09:16;;;;;;;29.23;16.17;;;1.00;83.00;;;;;;5047760;28;20378;-56
2024/01/21 11:11:44;;;;;;;30.48;16.65;;;1.10;83.00;;;;;;5053081;28;20041;-56
2024/01/21 11:14:34;;;;;;;26.75;15.45;;;1.10;83.80;;;;;;5045970;28;20021;-59
2024/01/21 11:17:02;;;;;;;24.75;14.55;;;1.10;83.00;;;;;;5050733;28;20116;-58
2024/01/21 11:19:36;;;;;;;27.88;14.68;;;1.20;83.00;;;;;;5052977;28;20078;-61
2024/01/21 11:22:03;;;;;;;26.15;14.65;;;1.20;83.00;;;;;;5047523;28;20396;-55
2024/01/21 11:24:30;;;;;;;27.45;15.30;;;1.30;83.00;;;;;;5051644;28;20045;-60
2024/01/21 11:26:57;;;;;;;25.50;15.05;;;1.30;83.00;;;;;;5051351;28;20547;-59
2024/01/21 11:29:30;;;;;;;27.05;15.85;;;1.40;83.10;;;;;;5051352;28;20033;-58
2024/01/21 11:32:10;;;;;;;24.13;14.93;;;1.40;83.20;;;;;;5051166;28;20404;-58
2024/01/21 11:34:41;;;;;;;22.05;13.85;;;1.50;83.20;;;;;;5050918;28;20123;-58
2024/01/21 11:37:08;;;;;;;24.33;14.63;;;1.50;83.20;;;;;;5051293;28;20029;-60
2024/01/21 11:39:34;;;;;;;26.00;15.27;;;1.60;83.20;;;;;;5051631;28;20450;-60
2024/01/21 11:42:01;;;;;;;23.45;13.15;;;1.70;83.20;;;;;;5049616;28;20021;-59
2024/01/21 11:44:28;;;;;;;22.08;13.18;;;1.70;83.20;;;;;;5052471;28;20413;-56
2024/01/21 11:46:56;;;;;;;20.90;12.48;;;1.80;83.10;;;;;;5045746;28;20110;-60
2024/01/21 11:49:23;;;;;;;21.73;12.77;;;1.90;83.00;;;;;;5050535;28;20040;-60
2024/01/21 11:51:49;;;;;;;19.25;12.45;;;1.90;82.70;;;;;;5045996;28;20310;-61
2024/01/21 11:54:15;;;;;;;20.08;12.05;;;2.00;82.60;;;;;;5046437;28;20029;-58
2024/01/21 11:56:42;;;;;;;19.65;12.07;;;2.10;82.50;;;;;;5037089;28;20053;-59
2024/01/21 11:59:10;;;;;;;19.17;11.85;;;2.20;82.40;;;;;;5032481;28;20052;-59
2024/01/21 12:01:37;;;;;;;16.65;11.10;;;2.20;82.30;;;;;;5038070;28;20029;-60
2024/01/21 12:04:09;;;;;;;20.05;11.75;;;2.30;82.10;;;;;;5033935;28;20119;-58
2024/01/21 12:06:41;;;;;;;18.10;11.25;;;2.40;82.00;;;;;;5043227;28;20033;-58
2024/01/21 12:09:07;;;;;;;17.48;10.88;;;2.50;81.80;;;;;;5043218;28;20029;-61
2024/01/21 12:11:35;;;;;;;15.68;10.73;;;2.60;82.60;;;;;;5041481;28;20531;-61
2024/01/21 12:14:03;;;;;;;16.98;10.77;;;2.60;82.40;;;;;;5044195;28;20041;-61
2024/01/21 12:16:28;;;;;;;17.17;10.65;;;2.70;81.60;;;;;;5046922;28;20049;-56
2024/01/21 12:18:54;;;;;;;16.85;10.25;;;2.80;81.40;;;;;;5041227;28;20053;-57
2024/01/21 12:21:23;;;;;;;14.82;10.00;;;2.90;81.40;;;;;;5037731;28;20304;-58
2024/01/21 12:23:51;;;;;;;14.38;9.43;;;2.90;81.30;;;;;;5034894;28;20034;-60